sensor_id;sensor_type;location;lat;lon;timestamp;P1;durP1;ratioP1;P2;durP2;ratioP2
3918;SDS011;1974;48.670;8.994;2024-01-30T00:01:58;3.10;;;1.90;;
3918;SDS011;1974;48.670;8.994;2024-01-30T00:04:25;2.50;;;1.37;;
3918;SDS011;1974;48.670;8.994;2024-01-30T00:06:52;1.20;;;1.10;;
3918;SDS011;1974;48.670;8.994;2024-01-30T00:09:19;3.37;;;0.87;;
3918;SDS011;1974;48.670;8.994;2024-01-30T00:11:47;1.27;;;0.80;;
3918;SDS011;1974;48.670;8.994;2024-01-30T00:14:14;2.00;;;1.00;;
3918;SDS011;1974;48.670;8.994;2024-01-30T00:16:41;4.50;;;1.03;;
3918;SDS011;1974;48.670;8.994;2024-01-30T00:19:08;1.17;;;1.07;;
3918;SDS011;1974;48.670;8.994;2024-01-30T00:21:35;2.50;;;0.90;;
3918;SDS011;1974;48.670;8.994;2024-01-30T00:24:02;1.60;;;0.90;;
3918;SDS011;1974;48.670;8.994;2024-01-30T00:26:30;4.00;;;1.00;;
3918;SDS011;1974;48.670;8.994;2024-01-30T00:28:58;5.60;;;1.40;;
3918;SDS011;1974;48.670;8.994;2024-01-30T00:31:25;2.73;;;1.37;;
3918;SDS011;1974;48.670;8.994;2024-01-30T00:33:52;2.30;;;1.40;;
3918;SDS011;1974;48.670;8.994;2024-01-30T00:36:19;2.20;;;1.20;;
3918;SDS011;1974;48.670;8.994;2024-01-30T00:38:45;5.33;;;1.20;;
3918;SDS011;1974;48.670;8.994;2024-01-30T00:41:12;3.13;;;2.27;;
3918;SDS011;1974;48.670;8.994;2024-01-30T00:43:39;1.90;;;1.37;;
3918;SDS011;1974;48.670;8.994;2024-01-30T00:46:08;4.70;;;1.53;;
3918;SDS011;1974;48.670;8.994;2024-01-30T00:48:34;5.17;;;1.93;;
3918;SDS011;1974;48.670;8.994;2024-01-30T00:51:02;1.77;;;1.60;;
3918;SDS011;1974;48.670;8.994;2024-01-30T00:53:28;2.20;;;1.37;;
3918;SDS011;1974;48.670;8.994;2024-01-30T00:55:55;2.17;;;1.97;;
3918;SDS011;1974;48.670;8.994;2024-01-30T00:58:22;0.80;;;0.80;;
3918;SDS011;1974;48.670;8.994;2024-01-30T01:00:49;1.60;;;1.50;;
3918;SDS011;1974;48.670;8.994;2024-01-30T01:03:18;1.57;;;1.47;;
3918;SDS011;1974;48.670;8.994;2024-01-30T01:05:45;3.53;;;1.43;;
3918;SDS011;1974;48.670;8.994;2024-01-30T01:08:12;1.47;;;1.30;;
3918;SDS011;1974;48.670;8.994;2024-01-30T01:10:40;2.47;;;1.70;;
3918;SDS011;1974;48.670;8.994;2024-01-30T01:13:07;2.77;;;1.83;;
3918;SDS011;1974;48.670;8.994;2024-01-30T01:15:34;6.17;;;2.67;;
3918;SDS011;1974;48.670;8.994;2024-01-30T01:18:02;2.40;;;1.67;;
3918;SDS011;1974;48.670;8.994;2024-01-30T01:20:30;3.07;;;2.10;;
3918;SDS011;1974;48.670;8.994;2024-01-30T01:22:57;4.67;;;1.37;;
3918;SDS011;1974;48.670;8.994;2024-01-30T01:25:24;2.30;;;1.23;;
3918;SDS011;1974;48.670;8.994;2024-01-30T01:27:51;2.20;;;1.33;;
3918;SDS011;1974;48.670;8.994;2024-01-30T01:30:18;1.50;;;1.40;;
3918;SDS011;1974;48.670;8.994;2024-01-30T01:32:47;1.87;;;1.40;;
3918;SDS011;1974;48.670;8.994;2024-01-30T01:35:19;2.33;;;1.63;;
3918;SDS011;1974;48.670;8.994;2024-01-30T01:37:49;1.00;;;0.90;;
3918;SDS011;1974;48.670;8.994;2024-01-30T01:40:20;1.70;;;1.10;;
3918;SDS011;1974;48.670;8.994;2024-01-30T01:42:48;1.80;;;1.27;;
3918;SDS011;1974;48.670;8.994;2024-01-30T01:45:17;1.00;;;0.70;;
3918;SDS011;1974;48.670;8.994;2024-01-30T01:47:44;1.50;;;1.40;;
3918;SDS011;1974;48.670;8.994;2024-01-30T01:50:15;0.90;;;0.90;;
3918;SDS011;1974;48.670;8.994;2024-01-30T01:52:43;1.17;;;1.17;;
3918;SDS011;1974;48.670;8.994;2024-01-30T01:55:13;1.00;;;1.00;;
3918;SDS011;1974;48.670;8.994;2024-01-30T01:57:42;0.90;;;0.77;;
3918;SDS011;1974;48.670;8.994;2024-01-30T02:00:10;2.00;;;1.03;;
3918;SDS011;1974;48.670;8.994;2024-01-30T02:02:38;1.60;;;1.03;;
3918;SDS011;1974;48.670;8.994;2024-01-30T02:05:06;2.50;;;1.70;;
3918;SDS011;1974;48.670;8.994;2024-01-30T02:07:34;1.97;;;1.17;;
3918;SDS011;1974;48.670;8.994;2024-01-30T02:10:01;2.23;;;1.10;;
3918;SDS011;1974;48.670;8.994;2024-01-30T02:12:30;1.07;;;0.77;;
3918;SDS011;1974;48.670;8.994;2024-01-30T02:14:56;1.07;;;1.00;;
3918;SDS011;1974;48.670;8.994;2024-01-30T02:17:23;1.50;;;1.40;;
3918;SDS011;1974;48.670;8.994;2024-01-30T02:19:51;2.90;;;1.50;;
3918;SDS011;1974;48.670;8.994;2024-01-30T02:22:19;2.73;;;1.40;;
3918;SDS011;1974;48.670;8.994;2024-01-30T02:24:47;1.30;;;1.13;;
3918;SDS011;1974;48.670;8.994;2024-01-30T02:27:14;1.53;;;1.43;;
3918;SDS011;1974;48.670;8.994;2024-01-30T02:29:42;1.27;;;1.10;;
3918;SDS011;1974;48.670;8.994;2024-01-30T02:32:09;2.30;;;1.03;;
3918;SDS011;1974;48.670;8.994;2024-01-30T02:34:36;1.77;;;1.67;;
3918;SDS011;1974;48.670;8.994;2024-01-30T02:37:03;1.70;;;1.60;;
3918;SDS011;1974;48.670;8.994;2024-01-30T02:39:31;2.83;;;1.30;;
3918;SDS011;1974;48.670;8.994;2024-01-30T02:41:58;3.00;;;1.73;;
3918;SDS011;1974;48.670;8.994;2024-01-30T02:44:25;1.20;;;1.20;;
3918;SDS011;1974;48.670;8.994;2024-01-30T02:46:52;1.60;;;1.50;;
3918;SDS011;1974;48.670;8.994;2024-01-30T02:49:20;3.47;;;1.83;;
3918;SDS011;1974;48.670;8.994;2024-01-30T02:51:47;1.60;;;1.33;;
3918;SDS011;1974;48.670;8.994;2024-01-30T02:54:14;1.87;;;1.30;;
3918;SDS011;1974;48.670;8.994;2024-01-30T02:56:43;5.20;;;1.87;;
3918;SDS011;1974;48.670;8.994;2024-01-30T02:59:10;2.40;;;1.43;;
3918;SDS011;1974;48.670;8.994;2024-01-30T03:01:42;1.27;;;0.83;;
3918;SDS011;1974;48.670;8.994;2024-01-30T03:04:10;0.70;;;0.60;;
3918;SDS011;1974;48.670;8.994;2024-01-30T03:06:37;1.43;;;1.33;;
3918;SDS011;1974;48.670;8.994;2024-01-30T03:09:04;1.07;;;0.73;;
3918;SDS011;1974;48.670;8.994;2024-01-30T03:11:31;2.13;;;1.37;;
3918;SDS011;1974;48.670;8.994;2024-01-30T03:14:00;1.27;;;1.17;;
3918;SDS011;1974;48.670;8.994;2024-01-30T03:16:27;1.50;;;1.07;;
3918;SDS011;1974;48.670;8.994;2024-01-30T03:18:54;1.83;;;1.10;;
3918;SDS011;1974;48.670;8.994;2024-01-30T03:21:21;3.13;;;1.00;;
3918;SDS011;1974;48.670;8.994;2024-01-30T03:23:48;1.53;;;1.10;;
3918;SDS011;1974;48.670;8.994;2024-01-30T03:26:15;1.50;;;0.70;;
3918;SDS011;1974;48.670;8.994;2024-01-30T03:28:42;1.77;;;1.20;;
3918;SDS011;1974;48.670;8.994;2024-01-30T03:31:12;2.30;;;0.90;;
3918;SDS011;1974;48.670;8.994;2024-01-30T03:33:40;3.80;;;2.23;;
3918;SDS011;1974;48.670;8.994;2024-01-30T03:36:08;1.37;;;1.20;;
3918;SDS011;1974;48.670;8.994;2024-01-30T03:38:35;1.23;;;0.97;;
3918;SDS011;1974;48.670;8.994;2024-01-30T03:41:02;7.70;;;2.17;;
3918;SDS011;1974;48.670;8.994;2024-01-30T03:43:29;1.47;;;1.10;;
3918;SDS011;1974;48.670;8.994;2024-01-30T03:45:56;1.37;;;1.27;;
3918;SDS011;1974;48.670;8.994;2024-01-30T03:48:25;5.70;;;1.37;;
3918;SDS011;1974;48.670;8.994;2024-01-30T03:50:52;3.60;;;1.97;;
3918;SDS011;1974;48.670;8.994;2024-01-30T03:53:19;5.03;;;2.10;;
3918;SDS011;1974;48.670;8.994;2024-01-30T03:55:46;2.37;;;1.40;;
3918;SDS011;1974;48.670;8.994;2024-01-30T03:58:13;1.70;;;0.90;;
3918;SDS011;1974;48.670;8.994;2024-01-30T04:00:40;2.20;;;1.10;;
3918;SDS011;1974;48.670;8.994;2024-01-30T04:03:07;1.70;;;1.13;;
3918;SDS011;1974;48.670;8.994;2024-01-30T04:05:36;2.23;;;1.60;;
3918;SDS011;1974;48.670;8.994;2024-01-30T04:08:03;4.33;;;2.10;;
3918;SDS011;1974;48.670;8.994;2024-01-30T04:10:30;2.20;;;1.07;;
3918;SDS011;1974;48.670;8.994;2024-01-30T04:12:57;1.63;;;1.63;;
3918;SDS011;1974;48.670;8.994;2024-01-30T04:15:24;2.40;;;1.00;;
3918;SDS011;1974;48.670;8.994;2024-01-30T04:17:50;1.40;;;1.30;;
3918;SDS011;1974;48.670;8.994;2024-01-30T04:20:18;1.73;;;1.30;;
3918;SDS011;1974;48.670;8.994;2024-01-30T04:22:46;1.33;;;1.10;;
3918;SDS011;1974;48.670;8.994;2024-01-30T04:25:13;0.90;;;0.80;;
3918;SDS011;1974;48.670;8.994;2024-01-30T04:27:40;2.20;;;1.40;;
3918;SDS011;1974;48.670;8.994;2024-01-30T04:30:08;0.83;;;0.80;;
3918;SDS011;1974;48.670;8.994;2024-01-30T04:32:36;3.27;;;2.00;;
3918;SDS011;1974;48.670;8.994;2024-01-30T04:35:03;2.97;;;1.23;;
3918;SDS011;1974;48.670;8.994;2024-01-30T04:37:30;3.50;;;0.90;;
3918;SDS011;1974;48.670;8.994;2024-01-30T04:39:58;1.20;;;0.90;;
3918;SDS011;1974;48.670;8.994;2024-01-30T04:42:25;1.67;;;1.00;;
3918;SDS011;1974;48.670;8.994;2024-01-30T04:44:52;1.60;;;1.10;;
3918;SDS011;1974;48.670;8.994;2024-01-30T04:47:20;0.90;;;0.67;;
3918;SDS011;1974;48.670;8.994;2024-01-30T04:49:47;4.60;;;2.00;;
3918;SDS011;1974;48.670;8.994;2024-01-30T04:52:15;0.53;;;0.53;;
3918;SDS011;1974;48.670;8.994;2024-01-30T04:54:42;0.90;;;0.80;;
3918;SDS011;1974;48.670;8.994;2024-01-30T04:57:11;1.37;;;1.23;;
3918;SDS011;1974;48.670;8.994;2024-01-30T04:59:38;3.63;;;1.17;;
3918;SDS011;1974;48.670;8.994;2024-01-30T05:02:05;0.60;;;0.60;;
3918;SDS011;1974;48.670;8.994;2024-01-30T05:04:32;0.70;;;0.70;;
3918;SDS011;1974;48.670;8.994;2024-01-30T05:06:59;1.27;;;0.87;;
3918;SDS011;1974;48.670;8.994;2024-01-30T05:09:27;3.03;;;1.17;;
3918;SDS011;1974;48.670;8.994;2024-01-30T05:11:54;13.13;;;1.67;;
3918;SDS011;1974;48.670;8.994;2024-01-30T05:14:23;1.60;;;0.90;;
3918;SDS011;1974;48.670;8.994;2024-01-30T05:16:51;0.70;;;0.57;;
3918;SDS011;1974;48.670;8.994;2024-01-30T05:19:18;0.80;;;0.80;;
3918;SDS011;1974;48.670;8.994;2024-01-30T05:21:48;0.90;;;0.60;;
3918;SDS011;1974;48.670;8.994;2024-01-30T05:24:15;4.33;;;1.57;;
3918;SDS011;1974;48.670;8.994;2024-01-30T05:26:42;3.67;;;1.40;;
3918;SDS011;1974;48.670;8.994;2024-01-30T05:29:09;3.40;;;1.40;;
3918;SDS011;1974;48.670;8.994;2024-01-30T05:31:37;2.63;;;0.70;;
3918;SDS011;1974;48.670;8.994;2024-01-30T05:34:04;0.60;;;0.50;;
3918;SDS011;1974;48.670;8.994;2024-01-30T05:36:32;0.80;;;0.80;;
3918;SDS011;1974;48.670;8.994;2024-01-30T05:38:59;0.77;;;0.77;;
3918;SDS011;1974;48.670;8.994;2024-01-30T05:41:26;1.60;;;1.33;;
3918;SDS011;1974;48.670;8.994;2024-01-30T05:43:54;2.27;;;1.20;;
3918;SDS011;1974;48.670;8.994;2024-01-30T05:46:21;5.93;;;0.97;;
3918;SDS011;1974;48.670;8.994;2024-01-30T05:48:49;2.80;;;1.43;;
3918;SDS011;1974;48.670;8.994;2024-01-30T05:51:16;5.40;;;1.77;;
3918;SDS011;1974;48.670;8.994;2024-01-30T05:53:44;2.37;;;0.70;;
3918;SDS011;1974;48.670;8.994;2024-01-30T05:56:11;0.77;;;0.73;;
3918;SDS011;1974;48.670;8.994;2024-01-30T05:58:38;2.93;;;1.00;;
3918;SDS011;1974;48.670;8.994;2024-01-30T06:01:06;1.40;;;0.80;;
3918;SDS011;1974;48.670;8.994;2024-01-30T06:03:34;0.97;;;0.97;;
3918;SDS011;1974;48.670;8.994;2024-01-30T06:06:02;0.60;;;0.60;;
3918;SDS011;1974;48.670;8.994;2024-01-30T06:08:30;0.87;;;0.87;;
3918;SDS011;1974;48.670;8.994;2024-01-30T06:10:57;0.80;;;0.80;;
3918;SDS011;1974;48.670;8.994;2024-01-30T06:13:24;0.50;;;0.43;;
3918;SDS011;1974;48.670;8.994;2024-01-30T06:15:51;1.43;;;0.90;;
3918;SDS011;1974;48.670;8.994;2024-01-30T06:18:18;1.57;;;0.73;;
3918;SDS011;1974;48.670;8.994;2024-01-30T06:20:45;0.60;;;0.60;;
3918;SDS011;1974;48.670;8.994;2024-01-30T06:23:14;2.47;;;0.73;;
3918;SDS011;1974;48.670;8.994;2024-01-30T06:25:41;1.40;;;1.17;;
3918;SDS011;1974;48.670;8.994;2024-01-30T06:28:08;0.70;;;0.70;;
3918;SDS011;1974;48.670;8.994;2024-01-30T06:30:35;1.00;;;0.90;;
3918;SDS011;1974;48.670;8.994;2024-01-30T06:33:02;0.77;;;0.40;;
3918;SDS011;1974;48.670;8.994;2024-01-30T06:35:29;0.50;;;0.50;;
3918;SDS011;1974;48.670;8.994;2024-01-30T06:37:56;0.40;;;0.40;;
3918;SDS011;1974;48.670;8.994;2024-01-30T06:40:25;1.57;;;0.60;;
3918;SDS011;1974;48.670;8.994;2024-01-30T06:42:52;0.73;;;0.73;;
3918;SDS011;1974;48.670;8.994;2024-01-30T06:45:19;1.07;;;1.03;;
3918;SDS011;1974;48.670;8.994;2024-01-30T06:47:46;0.80;;;0.80;;
3918;SDS011;1974;48.670;8.994;2024-01-30T06:50:13;3.63;;;1.37;;
3918;SDS011;1974;48.670;8.994;2024-01-30T06:52:40;1.90;;;0.83;;
3918;SDS011;1974;48.670;8.994;2024-01-30T06:55:08;0.80;;;0.70;;
3918;SDS011;1974;48.670;8.994;2024-01-30T06:57:37;1.53;;;1.43;;
3918;SDS011;1974;48.670;8.994;2024-01-30T07:00:04;0.97;;;0.60;;
3918;SDS011;1974;48.670;8.994;2024-01-30T07:02:32;1.00;;;0.90;;
3918;SDS011;1974;48.670;8.994;2024-01-30T07:04:59;6.80;;;1.60;;
3918;SDS011;1974;48.670;8.994;2024-01-30T07:07:26;3.07;;;0.60;;
3918;SDS011;1974;48.670;8.994;2024-01-30T07:09:53;1.17;;;1.17;;
3918;SDS011;1974;48.670;8.994;2024-01-30T07:12:21;3.17;;;1.23;;
3918;SDS011;1974;48.670;8.994;2024-01-30T07:14:51;0.90;;;0.43;;
3918;SDS011;1974;48.670;8.994;2024-01-30T07:17:18;0.60;;;0.57;;
3918;SDS011;1974;48.670;8.994;2024-01-30T07:19:45;3.80;;;0.77;;
3918;SDS011;1974;48.670;8.994;2024-01-30T07:22:12;1.00;;;0.90;;
3918;SDS011;1974;48.670;8.994;2024-01-30T07:24:42;4.03;;;1.03;;
3918;SDS011;1974;48.670;8.994;2024-01-30T07:27:13;0.60;;;0.60;;
3918;SDS011;1974;48.670;8.994;2024-01-30T07:29:42;2.03;;;0.90;;
3918;SDS011;1974;48.670;8.994;2024-01-30T07:32:11;12.33;;;1.60;;
3918;SDS011;1974;48.670;8.994;2024-01-30T07:34:38;0.50;;;0.47;;
3918;SDS011;1974;48.670;8.994;2024-01-30T07:37:05;0.60;;;0.60;;
3918;SDS011;1974;48.670;8.994;2024-01-30T07:39:33;1.30;;;0.87;;
3918;SDS011;1974;48.670;8.994;2024-01-30T07:42:00;5.33;;;1.53;;
3918;SDS011;1974;48.670;8.994;2024-01-30T07:44:28;1.00;;;0.57;;
3918;SDS011;1974;48.670;8.994;2024-01-30T07:46:55;0.70;;;0.40;;
3918;SDS011;1974;48.670;8.994;2024-01-30T07:49:23;1.63;;;0.90;;
3918;SDS011;1974;48.670;8.994;2024-01-30T07:51:50;0.70;;;0.70;;
3918;SDS011;1974;48.670;8.994;2024-01-30T07:54:17;0.63;;;0.50;;
3918;SDS011;1974;48.670;8.994;2024-01-30T07:56:44;4.47;;;1.43;;
3918;SDS011;1974;48.670;8.994;2024-01-30T07:59:11;0.83;;;0.80;;
3918;SDS011;1974;48.670;8.994;2024-01-30T08:01:38;1.80;;;0.80;;
3918;SDS011;1974;48.670;8.994;2024-01-30T08:04:12;1.90;;;1.20;;
3918;SDS011;1974;48.670;8.994;2024-01-30T08:06:40;3.40;;;1.00;;
3918;SDS011;1974;48.670;8.994;2024-01-30T08:09:07;3.33;;;1.30;;
3918;SDS011;1974;48.670;8.994;2024-01-30T08:11:34;4.80;;;2.03;;
3918;SDS011;1974;48.670;8.994;2024-01-30T08:14:01;2.30;;;1.43;;
3918;SDS011;1974;48.670;8.994;2024-01-30T08:16:28;2.40;;;1.70;;
3918;SDS011;1974;48.670;8.994;2024-01-30T08:18:55;2.80;;;1.17;;
3918;SDS011;1974;48.670;8.994;2024-01-30T08:21:22;2.90;;;1.23;;
3918;SDS011;1974;48.670;8.994;2024-01-30T08:23:51;3.43;;;1.03;;
3918;SDS011;1974;48.670;8.994;2024-01-30T08:26:18;1.20;;;0.93;;
3918;SDS011;1974;48.670;8.994;2024-01-30T08:28:44;8.50;;;2.90;;
3918;SDS011;1974;48.670;8.994;2024-01-30T08:31:15;6.80;;;3.57;;
3918;SDS011;1974;48.670;8.994;2024-01-30T08:33:42;4.83;;;3.40;;
3918;SDS011;1974;48.670;8.994;2024-01-30T08:36:09;9.60;;;3.27;;
3918;SDS011;1974;48.670;8.994;2024-01-30T08:38:36;2.13;;;1.40;;
3918;SDS011;1974;48.670;8.994;2024-01-30T08:41:04;3.43;;;1.43;;
3918;SDS011;1974;48.670;8.994;2024-01-30T08:43:31;5.20;;;2.07;;
3918;SDS011;1974;48.670;8.994;2024-01-30T08:45:58;2.43;;;2.23;;
3918;SDS011;1974;48.670;8.994;2024-01-30T08:48:25;2.77;;;1.20;;
3918;SDS011;1974;48.670;8.994;2024-01-30T08:50:52;1.47;;;1.37;;
3918;SDS011;1974;48.670;8.994;2024-01-30T08:53:19;1.43;;;1.33;;
3918;SDS011;1974;48.670;8.994;2024-01-30T08:55:46;2.67;;;1.63;;
3918;SDS011;1974;48.670;8.994;2024-01-30T08:58:15;4.00;;;2.33;;
3918;SDS011;1974;48.670;8.994;2024-01-30T09:00:43;4.53;;;2.73;;
3918;SDS011;1974;48.670;8.994;2024-01-30T09:03:10;6.13;;;2.87;;
3918;SDS011;1974;48.670;8.994;2024-01-30T09:05:36;2.87;;;2.17;;
3918;SDS011;1974;48.670;8.994;2024-01-30T09:08:03;1.70;;;1.47;;
3918;SDS011;1974;48.670;8.994;2024-01-30T09:10:30;2.63;;;1.40;;
3918;SDS011;1974;48.670;8.994;2024-01-30T09:12:57;3.80;;;1.70;;
3918;SDS011;1974;48.670;8.994;2024-01-30T09:15:25;3.80;;;1.90;;
3918;SDS011;1974;48.670;8.994;2024-01-30T09:17:52;4.00;;;2.33;;
3918;SDS011;1974;48.670;8.994;2024-01-30T09:20:18;3.10;;;2.73;;
3918;SDS011;1974;48.670;8.994;2024-01-30T09:22:47;2.70;;;2.50;;
3918;SDS011;1974;48.670;8.994;2024-01-30T09:25:14;2.90;;;1.40;;
3918;SDS011;1974;48.670;8.994;2024-01-30T09:27:41;4.33;;;2.07;;
3918;SDS011;1974;48.670;8.994;2024-01-30T09:30:08;6.47;;;2.37;;
3918;SDS011;1974;48.670;8.994;2024-01-30T09:32:36;2.77;;;2.57;;
3918;SDS011;1974;48.670;8.994;2024-01-30T09:35:03;4.77;;;2.50;;
3918;SDS011;1974;48.670;8.994;2024-01-30T09:37:31;4.60;;;2.83;;
3918;SDS011;1974;48.670;8.994;2024-01-30T09:39:57;8.43;;;1.93;;
3918;SDS011;1974;48.670;8.994;2024-01-30T09:42:26;5.10;;;2.30;;
3918;SDS011;1974;48.670;8.994;2024-01-30T09:45:01;2.90;;;1.70;;
3918;SDS011;1974;48.670;8.994;2024-01-30T09:47:30;1.90;;;1.80;;
3918;SDS011;1974;48.670;8.994;2024-01-30T09:49:59;3.37;;;2.80;;
3918;SDS011;1974;48.670;8.994;2024-01-30T09:52:28;3.20;;;2.60;;
3918;SDS011;1974;48.670;8.994;2024-01-30T09:54:55;7.10;;;2.87;;
3918;SDS011;1974;48.670;8.994;2024-01-30T09:57:22;4.90;;;2.80;;
3918;SDS011;1974;48.670;8.994;2024-01-30T09:59:51;4.73;;;2.80;;
3918;SDS011;1974;48.670;8.994;2024-01-30T10:02:19;3.93;;;2.07;;
3918;SDS011;1974;48.670;8.994;2024-01-30T10:04:47;6.93;;;3.57;;
3918;SDS011;1974;48.670;8.994;2024-01-30T10:07:16;4.40;;;2.30;;
3918;SDS011;1974;48.670;8.994;2024-01-30T10:09:42;11.03;;;3.40;;
3918;SDS011;1974;48.670;8.994;2024-01-30T10:12:09;3.00;;;1.77;;
3918;SDS011;1974;48.670;8.994;2024-01-30T10:14:37;4.20;;;2.53;;
3918;SDS011;1974;48.670;8.994;2024-01-30T10:17:04;8.00;;;2.07;;
3918;SDS011;1974;48.670;8.994;2024-01-30T10:19:31;4.60;;;2.30;;
3918;SDS011;1974;48.670;8.994;2024-01-30T10:21:59;3.87;;;1.30;;
3918;SDS011;1974;48.670;8.994;2024-01-30T10:24:28;4.17;;;1.80;;
3918;SDS011;1974;48.670;8.994;2024-01-30T10:26:55;5.37;;;2.00;;
3918;SDS011;1974;48.670;8.994;2024-01-30T10:29:22;2.07;;;1.87;;
3918;SDS011;1974;48.670;8.994;2024-01-30T10:31:57;3.73;;;2.40;;
3918;SDS011;1974;48.670;8.994;2024-01-30T10:34:24;1.07;;;0.97;;
3918;SDS011;1974;48.670;8.994;2024-01-30T10:36:51;1.00;;;0.90;;
3918;SDS011;1974;48.670;8.994;2024-01-30T10:39:28;0.67;;;0.57;;
3918;SDS011;1974;48.670;8.994;2024-01-30T10:41:58;0.90;;;0.63;;
3918;SDS011;1974;48.670;8.994;2024-01-30T10:44:29;1.07;;;0.70;;
3918;SDS011;1974;48.670;8.994;2024-01-30T10:47:03;3.47;;;1.30;;
3918;SDS011;1974;48.670;8.994;2024-01-30T10:49:37;1.20;;;0.60;;
3918;SDS011;1974;48.670;8.994;2024-01-30T10:52:05;1.63;;;1.00;;
3918;SDS011;1974;48.670;8.994;2024-01-30T10:54:35;3.27;;;0.90;;
3918;SDS011;1974;48.670;8.994;2024-01-30T10:57:03;0.60;;;0.60;;
3918;SDS011;1974;48.670;8.994;2024-01-30T10:59:31;1.90;;;0.80;;
3918;SDS011;1974;48.670;8.994;2024-01-30T11:01:58;0.70;;;0.70;;
3918;SDS011;1974;48.670;8.994;2024-01-30T11:04:26;1.10;;;0.67;;
3918;SDS011;1974;48.670;8.994;2024-01-30T11:06:53;2.33;;;0.70;;
3918;SDS011;1974;48.670;8.994;2024-01-30T11:09:20;1.00;;;0.90;;
3918;SDS011;1974;48.670;8.994;2024-01-30T11:11:51;0.80;;;0.80;;
3918;SDS011;1974;48.670;8.994;2024-01-30T11:14:25;1.63;;;1.00;;
3918;SDS011;1974;48.670;8.994;2024-01-30T11:16:52;1.63;;;0.87;;
3918;SDS011;1974;48.670;8.994;2024-01-30T11:19:22;2.40;;;1.20;;
3918;SDS011;1974;48.670;8.994;2024-01-30T11:21:50;2.37;;;0.67;;
3918;SDS011;1974;48.670;8.994;2024-01-30T11:24:19;1.10;;;0.90;;
3918;SDS011;1974;48.670;8.994;2024-01-30T11:26:47;2.03;;;1.07;;
3918;SDS011;1974;48.670;8.994;2024-01-30T11:29:16;0.97;;;0.90;;
3918;SDS011;1974;48.670;8.994;2024-01-30T11:31:51;0.60;;;0.60;;
3918;SDS011;1974;48.670;8.994;2024-01-30T11:34:18;1.80;;;1.17;;
3918;SDS011;1974;48.670;8.994;2024-01-30T11:36:45;0.83;;;0.73;;
3918;SDS011;1974;48.670;8.994;2024-01-30T11:39:20;1.17;;;0.90;;
3918;SDS011;1974;48.670;8.994;2024-01-30T11:41:47;0.70;;;0.70;;
3918;SDS011;1974;48.670;8.994;2024-01-30T11:44:17;1.33;;;0.70;;
3918;SDS011;1974;48.670;8.994;2024-01-30T11:46:45;0.70;;;0.70;;
3918;SDS011;1974;48.670;8.994;2024-01-30T11:49:12;1.37;;;0.80;;
3918;SDS011;1974;48.670;8.994;2024-01-30T11:51:39;1.67;;;0.77;;
3918;SDS011;1974;48.670;8.994;2024-01-30T11:54:07;3.80;;;0.80;;
3918;SDS011;1974;48.670;8.994;2024-01-30T11:56:33;1.77;;;0.83;;
3918;SDS011;1974;48.670;8.994;2024-01-30T11:59:00;1.63;;;0.60;;
3918;SDS011;1974;48.670;8.994;2024-01-30T12:01:28;1.07;;;0.63;;
3918;SDS011;1974;48.670;8.994;2024-01-30T12:03:56;0.80;;;0.80;;
3918;SDS011;1974;48.670;8.994;2024-01-30T12:06:25;0.53;;;0.53;;
3918;SDS011;1974;48.670;8.994;2024-01-30T12:08:56;1.07;;;0.70;;
3918;SDS011;1974;48.670;8.994;2024-01-30T12:11:23;8.00;;;1.27;;
3918;SDS011;1974;48.670;8.994;2024-01-30T12:13:50;0.63;;;0.63;;
3918;SDS011;1974;48.670;8.994;2024-01-30T12:16:18;1.60;;;0.90;;
3918;SDS011;1974;48.670;8.994;2024-01-30T12:18:47;1.20;;;0.70;;
3918;SDS011;1974;48.670;8.994;2024-01-30T12:21:15;0.90;;;0.80;;
3918;SDS011;1974;48.670;8.994;2024-01-30T12:23:42;0.80;;;0.80;;
3918;SDS011;1974;48.670;8.994;2024-01-30T12:26:09;1.43;;;1.17;;
3918;SDS011;1974;48.670;8.994;2024-01-30T12:28:36;1.93;;;0.80;;
3918;SDS011;1974;48.670;8.994;2024-01-30T12:31:13;2.20;;;1.10;;
3918;SDS011;1974;48.670;8.994;2024-01-30T12:33:39;6.63;;;1.63;;
3918;SDS011;1974;48.670;8.994;2024-01-30T12:36:08;1.90;;;0.70;;
3918;SDS011;1974;48.670;8.994;2024-01-30T12:38:34;1.17;;;1.00;;
3918;SDS011;1974;48.670;8.994;2024-01-30T12:41:01;0.80;;;0.63;;
3918;SDS011;1974;48.670;8.994;2024-01-30T12:43:29;1.60;;;0.90;;
3918;SDS011;1974;48.670;8.994;2024-01-30T12:45:55;1.90;;;1.00;;
3918;SDS011;1974;48.670;8.994;2024-01-30T12:48:23;0.87;;;0.87;;
3918;SDS011;1974;48.670;8.994;2024-01-30T12:50:50;1.17;;;0.80;;
3918;SDS011;1974;48.670;8.994;2024-01-30T12:53:18;1.63;;;0.97;;
3918;SDS011;1974;48.670;8.994;2024-01-30T12:55:45;1.70;;;0.83;;
3918;SDS011;1974;48.670;8.994;2024-01-30T12:58:12;0.80;;;0.60;;
3918;SDS011;1974;48.670;8.994;2024-01-30T13:00:38;1.50;;;1.07;;
3918;SDS011;1974;48.670;8.994;2024-01-30T13:03:05;1.43;;;1.33;;
3918;SDS011;1974;48.670;8.994;2024-01-30T13:05:33;1.07;;;1.07;;
3918;SDS011;1974;48.670;8.994;2024-01-30T13:08:00;1.13;;;0.80;;
3918;SDS011;1974;48.670;8.994;2024-01-30T13:10:28;1.63;;;1.47;;
3918;SDS011;1974;48.670;8.994;2024-01-30T13:12:55;0.90;;;0.80;;
3918;SDS011;1974;48.670;8.994;2024-01-30T13:15:21;0.80;;;0.80;;
3918;SDS011;1974;48.670;8.994;2024-01-30T13:17:48;3.97;;;0.83;;
3918;SDS011;1974;48.670;8.994;2024-01-30T13:20:15;2.10;;;1.00;;
3918;SDS011;1974;48.670;8.994;2024-01-30T13:22:45;1.20;;;0.80;;
3918;SDS011;1974;48.670;8.994;2024-01-30T13:25:13;0.63;;;0.60;;
3918;SDS011;1974;48.670;8.994;2024-01-30T13:27:41;1.50;;;0.80;;
3918;SDS011;1974;48.670;8.994;2024-01-30T13:30:08;1.10;;;0.90;;
3918;SDS011;1974;48.670;8.994;2024-01-30T13:32:35;1.57;;;0.80;;
3918;SDS011;1974;48.670;8.994;2024-01-30T13:35:03;0.60;;;0.60;;
3918;SDS011;1974;48.670;8.994;2024-01-30T13:37:30;1.90;;;0.97;;
3918;SDS011;1974;48.670;8.994;2024-01-30T13:39:57;2.93;;;1.07;;
3918;SDS011;1974;48.670;8.994;2024-01-30T13:42:24;0.80;;;0.80;;
3918;SDS011;1974;48.670;8.994;2024-01-30T13:44:52;12.13;;;1.10;;
3918;SDS011;1974;48.670;8.994;2024-01-30T13:47:18;1.13;;;0.87;;
3918;SDS011;1974;48.670;8.994;2024-01-30T13:49:46;0.70;;;0.70;;
3918;SDS011;1974;48.670;8.994;2024-01-30T13:52:13;1.10;;;1.00;;
3918;SDS011;1974;48.670;8.994;2024-01-30T13:54:40;0.70;;;0.70;;
3918;SDS011;1974;48.670;8.994;2024-01-30T13:57:06;1.97;;;1.00;;
3918;SDS011;1974;48.670;8.994;2024-01-30T13:59:33;1.53;;;1.23;;
3918;SDS011;1974;48.670;8.994;2024-01-30T14:02:01;1.07;;;0.80;;
3918;SDS011;1974;48.670;8.994;2024-01-30T14:04:28;1.63;;;0.80;;
3918;SDS011;1974;48.670;8.994;2024-01-30T14:06:55;1.10;;;0.77;;
3918;SDS011;1974;48.670;8.994;2024-01-30T14:09:22;3.27;;;0.90;;
3918;SDS011;1974;48.670;8.994;2024-01-30T14:11:49;1.17;;;1.07;;
3918;SDS011;1974;48.670;8.994;2024-01-30T14:14:16;0.80;;;0.80;;
3918;SDS011;1974;48.670;8.994;2024-01-30T14:16:43;3.50;;;1.03;;
3918;SDS011;1974;48.670;8.994;2024-01-30T14:19:11;2.30;;;1.20;;
3918;SDS011;1974;48.670;8.994;2024-01-30T14:21:38;0.93;;;0.93;;
3918;SDS011;1974;48.670;8.994;2024-01-30T14:24:05;8.33;;;0.83;;
3918;SDS011;1974;48.670;8.994;2024-01-30T14:26:32;2.47;;;1.07;;
3918;SDS011;1974;48.670;8.994;2024-01-30T14:28:58;1.20;;;0.80;;
3918;SDS011;1974;48.670;8.994;2024-01-30T14:31:25;1.53;;;0.90;;
3918;SDS011;1974;48.670;8.994;2024-01-30T14:33:52;1.40;;;1.30;;
3918;SDS011;1974;48.670;8.994;2024-01-30T14:36:21;1.93;;;0.93;;
3918;SDS011;1974;48.670;8.994;2024-01-30T14:38:52;1.20;;;0.90;;
3918;SDS011;1974;48.670;8.994;2024-01-30T14:41:19;2.27;;;0.90;;
3918;SDS011;1974;48.670;8.994;2024-01-30T14:43:46;1.03;;;0.90;;
3918;SDS011;1974;48.670;8.994;2024-01-30T14:46:14;0.93;;;0.73;;
3918;SDS011;1974;48.670;8.994;2024-01-30T14:48:41;2.07;;;0.90;;
3918;SDS011;1974;48.670;8.994;2024-01-30T14:51:08;1.47;;;0.90;;
3918;SDS011;1974;48.670;8.994;2024-01-30T14:53:36;1.57;;;0.97;;
3918;SDS011;1974;48.670;8.994;2024-01-30T14:56:04;1.83;;;0.93;;
3918;SDS011;1974;48.670;8.994;2024-01-30T14:58:31;1.07;;;0.83;;
3918;SDS011;1974;48.670;8.994;2024-01-30T15:00:58;2.20;;;0.70;;
3918;SDS011;1974;48.670;8.994;2024-01-30T15:03:26;1.13;;;0.70;;
3918;SDS011;1974;48.670;8.994;2024-01-30T15:05:53;1.20;;;0.93;;
3918;SDS011;1974;48.670;8.994;2024-01-30T15:08:20;1.43;;;1.00;;
3918;SDS011;1974;48.670;8.994;2024-01-30T15:10:48;1.70;;;0.80;;
3918;SDS011;1974;48.670;8.994;2024-01-30T15:13:16;1.50;;;0.83;;
3918;SDS011;1974;48.670;8.994;2024-01-30T15:15:42;1.00;;;1.00;;
3918;SDS011;1974;48.670;8.994;2024-01-30T15:18:09;1.47;;;0.90;;